Time;durP1;ratioP1;P1;durP2;ratioP2;P2;SDS_P1;SDS_P2;PMS_P1;PMS_P2;Temp;Humidity;BMP_temperature;BMP_pressure;BME280_temperature;BME280_humidity;BME280_pressure;Samples;Min_cycle;Max_cycle;Signal;HPM_P1;HPM_P2
2024/04/26 00:01:02;;;;;;;10.13;6.00;;;;;;;10.38;62.48;99980.38;5050768;28;20242;-75
2024/04/26 00:03:28;;;;;;;8.30;5.93;;;;;;;10.32;62.58;99977.75;5049511;28;20222;-75
2024/04/26 00:05:54;;;;;;;8.00;7.10;;;;;;;10.35;62.65;99977.75;5074372;28;20519;-75
2024/04/26 00:08:19;;;;;;;6.33;5.83;;;;;;;10.19;63.06;99975.16;5081830;28;21076;-75
2024/04/26 00:10:44;;;;;;;7.00;6.30;;;;;;;10.47;62.76;99969.06;5080096;28;20333;-75
2024/04/26 00:13:10;;;;;;;7.03;6.20;;;;;;;10.41;62.73;99969.94;5081839;28;20229;-76
2024/04/26 00:15:35;;;;;;;7.40;6.70;;;;;;;10.38;63.11;99968.22;5081239;28;20237;-74
2024/04/26 00:18:00;;;;;;;7.20;6.50;;;;;;;10.46;62.94;99970.81;5079937;28;20311;-75
2024/04/26 00:20:25;;;;;;;8.30;6.83;;;;;;;10.42;62.76;99972.53;5081796;28;20225;-75
2024/04/26 00:22:51;;;;;;;8.47;6.70;;;;;;;10.22;62.82;99963.88;5081650;28;20229;-75
2024/04/26 00:25:16;;;;;;;7.17;6.00;;;;;;;10.51;62.13;99970.78;5080714;28;20329;-75
2024/04/26 00:27:43;;;;;;;6.83;6.13;;;;;;;10.28;62.74;99969.06;5083324;28;20340;-76
2024/04/26 00:30:10;;;;;;;7.47;6.67;;;;;;;10.34;62.71;99963.84;5080381;28;20716;-78
2024/04/26 00:32:35;;;;;;;7.93;6.40;;;;;;;10.27;61.53;99968.19;5081231;28;21069;-76
2024/04/26 00:35:01;;;;;;;8.63;6.53;;;;;;;10.21;62.28;99967.34;5080325;28;20474;-76
2024/04/26 00:37:26;;;;;;;7.80;6.93;;;;;;;10.40;61.21;99963.00;5082140;28;20584;-76
2024/04/26 00:39:51;;;;;;;8.23;7.43;;;;;;;10.43;61.44;99963.88;5081614;28;20233;-75
2024/04/26 00:42:17;;;;;;;7.60;6.90;;;;;;;10.00;62.01;99963.91;5080829;28;20250;-76
2024/04/26 00:44:42;;;;;;;9.50;6.93;;;;;;;10.02;61.96;99967.34;5080153;28;20237;-76
2024/04/26 00:47:07;;;;;;;8.33;6.87;;;;;;;10.16;62.11;99959.53;5081826;28;20279;-75
2024/04/26 00:49:33;;;;;;;7.80;6.80;;;;;;;10.11;62.43;99961.28;5080187;28;20585;-76
2024/04/26 00:51:58;;;;;;;7.60;6.60;;;;;;;10.27;62.04;99959.53;5081882;28;20233;-75
2024/04/26 00:54:25;;;;;;;10.93;7.67;;;;;;;10.09;62.41;99958.69;5080805;28;20322;-76
2024/04/26 00:56:57;;;;;;;16.80;9.00;;;;;;;10.45;61.46;99953.44;5082169;28;20275;-76
2024/04/26 00:59:23;;;;;;;7.83;7.03;;;;;;;10.43;61.12;99953.44;5079373;28;20482;-75
2024/04/26 01:01:48;;;;;;;9.87;7.77;;;;;;;10.08;62.00;99954.34;5081110;28;21104;-76
2024/04/26 01:04:13;;;;;;;8.53;7.53;;;;;;;10.08;62.12;99954.34;5081383;28;20471;-76
2024/04/26 01:06:39;;;;;;;8.60;7.70;;;;;;;10.20;61.71;99960.38;5081249;28;20237;-76
2024/04/26 01:09:04;;;;;;;8.10;7.40;;;;;;;10.47;61.21;99951.66;5081021;28;20245;-75
2024/04/26 01:11:29;;;;;;;10.03;7.60;;;;;;;10.32;61.28;99957.75;5081145;28;20288;-75
2024/04/26 01:13:55;;;;;;;7.80;7.00;;;;;;;10.42;61.30;99945.63;5080451;28;20234;-75
2024/04/26 01:16:20;;;;;;;9.20;7.50;;;;;;;10.57;60.69;99949.94;5080998;28;20276;-75
2024/04/26 01:18:45;;;;;;;10.53;7.93;;;;;;;10.69;61.28;99954.22;5080957;28;20275;-73
2024/04/26 01:21:14;;;;;;;9.83;8.33;;;;;;;11.10;61.32;99954.03;5080975;28;20322;-74
2024/04/26 01:23:40;;;;;;;12.17;8.30;;;;;;;10.87;60.29;99945.47;5081008;28;20341;-76
2024/04/26 01:26:05;;;;;;;11.10;8.60;;;;;;;10.75;60.40;99949.84;5080812;28;20447;-76
2024/04/26 01:28:33;;;;;;;11.73;9.70;;;;;;;10.38;60.65;99957.78;5080969;28;20238;-76
2024/04/26 01:30:59;;;;;;;9.93;9.00;;;;;;;10.34;60.95;99953.44;5080687;28;20233;-76
2024/04/26 01:33:24;;;;;;;12.90;9.03;;;;;;;10.75;60.03;99956.81;5080497;28;20458;-76
2024/04/26 01:35:50;;;;;;;11.00;8.40;;;;;;;9.89;61.28;99965.63;5079220;28;20333;-75
2024/04/26 01:38:15;;;;;;;9.53;8.50;;;;;;;10.51;59.95;99957.75;5079013;28;20284;-75
2024/04/26 01:40:40;;;;;;;10.97;9.30;;;;;;;10.50;60.01;99954.28;5080875;28;20272;-73
2024/04/26 01:43:06;;;;;;;11.60;8.60;;;;;;;10.07;59.89;99967.38;5080886;28;20230;-75
2024/04/26 01:45:31;;;;;;;10.43;8.83;;;;;;;10.35;59.21;99956.91;5079642;28;20233;-75
2024/04/26 01:47:56;;;;;;;9.90;8.90;;;;;;;10.44;59.12;99957.78;5080710;28;20233;-74
2024/04/26 01:50:22;;;;;;;10.43;9.00;;;;;;;9.93;60.32;99957.81;5105357;28;20241;-75
2024/04/26 01:52:49;;;;;;;11.07;8.83;;;;;;;8.95;62.82;99963.72;5078839;28;20642;-74
2024/04/26 01:55:15;;;;;;;10.60;9.27;;;;;;;9.45;62.60;99951.72;5080527;28;20268;-74
2024/04/26 01:57:40;;;;;;;9.13;8.23;;;;;;;9.28;62.23;99954.28;5080296;28;20938;-74
2024/04/26 02:00:07;;;;;;;10.87;8.37;;;;;;;10.08;61.40;99945.63;5078987;28;20525;-74
2024/04/26 02:02:32;;;;;;;9.87;8.40;;;;;;;10.42;60.17;99946.50;5080212;28;20225;-74
2024/04/26 02:04:57;;;;;;;8.97;8.03;;;;;;;9.97;61.31;99942.19;5080572;28;20505;-74
2024/04/26 02:07:23;;;;;;;8.80;7.90;;;;;;;10.26;60.62;99935.19;5080120;28;20234;-74
2024/04/26 02:09:48;;;;;;;11.20;8.60;;;;;;;10.13;61.24;99937.84;5080138;28;20280;-74
2024/04/26 02:12:13;;;;;;;10.57;8.80;;;;;;;9.76;62.28;99942.19;5080083;28;20237;-74
2024/04/26 02:14:38;;;;;;;8.60;7.80;;;;;;;9.86;61.98;99934.38;5080525;28;20225;-74
2024/04/26 02:17:04;;;;;;;10.37;8.60;;;;;;;10.24;61.57;99930.84;5080481;28;20289;-74
2024/04/26 02:19:29;;;;;;;8.63;7.73;;;;;;;10.31;61.37;99927.38;5118243;22;20359;-76
2024/04/26 02:21:55;;;;;;;9.27;7.70;;;;;;;9.83;62.63;99931.78;5111678;27;20225;-77
2024/04/26 02:24:20;;;;;;;9.03;7.77;;;;;;;9.85;62.27;99920.50;5112313;27;20271;-77
2024/04/26 02:26:46;;;;;;;8.53;7.57;;;;;;;9.89;62.30;99919.63;5114843;27;20426;-76
2024/04/26 02:29:11;;;;;;;8.37;7.57;;;;;;;10.04;62.20;99921.34;5113845;27;20244;-76
2024/04/26 02:31:38;;;;;;;8.40;7.50;;;;;;;9.40;63.19;99920.50;5115457;27;20267;-76
2024/04/26 02:34:03;;;;;;;12.43;7.20;;;;;;;9.76;63.12;99917.91;5115493;27;20275;-75
2024/04/26 02:36:28;;;;;;;8.40;7.50;;;;;;;9.88;62.46;99912.69;5115279;27;20972;-76
2024/04/26 02:38:53;;;;;;;7.50;6.80;;;;;;;9.54;63.16;99911.81;5115255;27;20252;-75
2024/04/26 02:41:19;;;;;;;8.23;7.17;;;;;;;9.97;61.95;99911.78;5115305;27;20263;-76
2024/04/26 02:43:44;;;;;;;8.63;7.53;;;;;;;9.54;63.20;99917.91;5114932;27;20225;-76
2024/04/26 02:46:10;;;;;;;9.50;8.23;;;;;;;9.76;62.72;99903.16;5115169;27;20228;-75
2024/04/26 02:48:36;;;;;;;10.30;7.60;;;;;;;10.27;61.97;99904.81;5115164;27;20236;-74
2024/04/26 02:51:02;;;;;;;9.20;7.70;;;;;;;9.94;62.58;99911.81;5114940;27;20922;-77
2024/04/26 02:53:27;;;;;;;8.33;7.53;;;;;;;10.28;61.77;99898.72;5115066;27;20450;-77
2024/04/26 02:55:52;;;;;;;8.50;7.70;;;;;;;10.11;61.85;99903.97;5115029;27;20700;-77
2024/04/26 02:58:17;;;;;;;8.50;7.53;;;;;;;10.29;62.13;99898.72;5115882;28;20224;-76
2024/04/26 03:00:43;;;;;;;8.97;8.07;;;;;;;9.74;62.21;99897.09;5116044;27;20794;-76
2024/04/26 03:03:08;;;;;;;10.20;7.33;;;;;;;9.99;61.88;99897.06;5116380;27;20267;-77
2024/04/26 03:05:33;;;;;;;8.20;7.17;;;;;;;9.67;62.01;99890.13;5116652;27;20232;-76
2024/04/26 03:07:58;;;;;;;7.17;6.17;;;;;;;9.77;62.20;99898.81;5116911;27;20248;-77
2024/04/26 03:10:24;;;;;;;9.00;7.13;;;;;;;10.15;61.31;99887.47;5116858;27;20240;-76
2024/04/26 03:12:49;;;;;;;8.13;7.10;;;;;;;9.80;62.38;99884.94;5115862;27;20343;-76
2024/04/26 03:15:14;;;;;;;7.90;6.90;;;;;;;10.07;61.64;99881.41;5116119;28;20328;-77
2024/04/26 03:17:41;;;;;;;7.80;7.10;;;;;;;9.88;61.99;99889.25;5115858;27;20228;-75
2024/04/26 03:20:07;;;;;;;8.63;7.43;;;;;;;9.86;62.26;99882.31;5114935;27;20236;-76
2024/04/26 03:22:32;;;;;;;7.40;6.70;;;;;;;9.86;62.38;99874.50;5114672;28;20536;-75
2024/04/26 03:24:57;;;;;;;8.50;7.60;;;;;;;9.18;63.96;99877.13;5114893;27;20220;-77
2024/04/26 03:27:23;;;;;;;8.07;7.10;;;;;;;9.82;62.62;99880.59;5115155;27;20259;-77
2024/04/26 03:29:48;;;;;;;9.50;7.30;;;;;;;9.52;63.36;99870.19;5114903;27;20248;-74
2024/04/26 03:32:13;;;;;;;9.87;7.20;;;;;;;9.70;62.63;99873.66;5114789;27;20653;-77
2024/04/26 03:34:39;;;;;;;9.00;7.00;;;;;;;9.39;63.35;99878.84;5114855;27;20224;-75
2024/04/26 03:37:04;;;;;;;10.47;8.57;;;;;;;9.34;63.95;99878.00;5114780;28;20267;-75
2024/04/26 03:39:29;;;;;;;9.07;7.30;;;;;;;9.37;63.83;99875.41;5114884;27;20246;-77
2024/04/26 03:41:54;;;;;;;8.90;8.00;;;;;;;9.27;63.68;99884.94;5115145;28;20244;-75
2024/04/26 03:44:20;;;;;;;8.57;7.67;;;;;;;9.29;63.36;99875.38;5115098;28;20719;-76
2024/04/26 03:46:45;;;;;;;9.23;7.53;;;;;;;9.09;64.20;99883.16;5114587;28;20271;-76
2024/04/26 03:49:10;;;;;;;9.10;7.63;;;;;;;9.22;64.07;99881.47;5114133;28;20244;-75
2024/04/26 03:51:36;;;;;;;9.10;8.20;;;;;;;9.89;62.70;99877.97;5112768;28;20349;-76
2024/04/26 03:54:01;;;;;;;8.40;7.60;;;;;;;9.24;63.77;99888.41;5114942;28;20228;-76
2024/04/26 03:56:27;;;;;;;8.73;7.83;;;;;;;9.36;65.08;99889.25;5114628;28;20715;-75
2024/04/26 03:58:52;;;;;;;9.80;8.80;;;;;;;9.60;64.03;99896.22;5114594;28;20240;-76
2024/04/26 04:01:17;;;;;;;12.30;8.93;;;;;;;9.95;63.47;99893.56;5114393;27;20236;-77
2024/04/26 04:03:42;;;;;;;9.87;8.77;;;;;;;9.84;63.81;99889.28;5114667;27;20232;-75
2024/04/26 04:06:08;;;;;;;10.60;8.10;;;;;;;9.61;65.00;99877.13;5114164;27;20228;-76
2024/04/26 04:08:33;;;;;;;8.83;7.90;;;;;;;9.83;64.06;99879.72;5114239;27;20240;-77
2024/04/26 04:10:58;;;;;;;9.70;7.87;;;;;;;9.88;64.10;99883.19;5114960;27;20275;-76
2024/04/26 04:13:24;;;;;;;10.93;8.17;;;;;;;9.78;64.17;99880.59;5114084;28;20266;-76
2024/04/26 04:15:49;;;;;;;10.60;7.70;;;;;;;9.80;64.23;99878.00;5112884;28;20225;-75
2024/04/26 04:18:14;;;;;;;9.23;7.90;;;;;;;9.64;64.34;99876.28;5114607;28;20232;-76
2024/04/26 04:20:40;;;;;;;11.33;7.67;;;;;;;9.33;65.55;99876.25;5113731;28;20259;-76
2024/04/26 04:23:06;;;;;;;9.37;8.37;;;;;;;9.94;64.19;99870.16;5113995;28;20236;-75
2024/04/26 04:25:31;;;;;;;10.47;8.60;;;;;;;9.27;65.25;99877.13;5114298;28;20228;-76
2024/04/26 04:27:56;;;;;;;8.63;7.70;;;;;;;9.27;65.96;99879.72;5114705;27;20221;-75
2024/04/26 04:30:22;;;;;;;8.43;7.60;;;;;;;9.75;64.30;99870.16;5113953;28;20241;-77
2024/04/26 04:32:47;;;;;;;9.53;7.90;;;;;;;9.73;64.46;99866.72;5113940;27;20232;-76
2024/04/26 04:35:12;;;;;;;9.07;7.67;;;;;;;9.48;64.93;99865.00;5114264;27;20270;-76
2024/04/26 04:37:38;;;;;;;8.67;7.70;;;;;;;9.48;65.06;99878.00;5113976;28;20232;-77
2024/04/26 04:40:03;;;;;;;8.93;7.60;;;;;;;9.87;64.55;99865.84;5114151;28;20253;-76
2024/04/26 04:42:29;;;;;;;10.40;8.23;;;;;;;9.89;64.80;99871.88;5113930;28;20652;-75
2024/04/26 04:44:54;;;;;;;9.50;8.53;;;;;;;10.04;64.43;99865.78;5113876;28;20247;-75
2024/04/26 04:47:19;;;;;;;19.70;14.37;;;;;;;10.23;64.26;99871.84;5113374;27;20274;-74
2024/04/26 04:49:45;;;;;;;39.60;28.07;;;;;;;9.84;65.14;99874.50;5112633;27;20296;-76
2024/04/26 04:52:10;;;;;;;49.57;35.63;;;;;;;9.94;65.06;99878.84;5113520;27;20228;-76
2024/04/26 04:54:35;;;;;;;15.90;13.90;;;;;;;9.84;65.37;99882.31;5113327;28;20271;-76
2024/04/26 04:57:01;;;;;;;11.73;10.57;;;;;;;10.01;64.33;99877.09;5113771;27;20287;-76
2024/04/26 04:59:26;;;;;;;9.20;8.20;;;;;;;10.37;63.61;99874.44;5113327;27;20305;-76
2024/04/26 05:01:51;;;;;;;9.47;8.53;;;;;;;10.07;64.32;99871.00;5113686;28;20302;-78
2024/04/26 05:04:17;;;;;;;12.50;8.77;;;;;;;9.90;64.31;99871.91;5114695;28;20232;-76
2024/04/26 05:06:42;;;;;;;9.60;8.60;;;;;;;10.12;63.42;99877.06;5112104;28;20328;-76
2024/04/26 05:09:07;;;;;;;10.13;9.13;;;;;;;9.00;66.90;99878.81;5113611;27;20283;-76
2024/04/26 05:11:32;;;;;;;9.57;8.67;;;;;;;9.10;66.41;99880.56;5113758;27;20652;-77
2024/04/26 05:13:58;;;;;;;8.80;7.70;;;;;;;9.36;65.43;99877.16;5113328;27;20236;-77
2024/04/26 05:16:23;;;;;;;9.43;8.40;;;;;;;9.83;65.12;99879.72;5113119;27;20224;-77
2024/04/26 05:18:48;;;;;;;9.90;8.50;;;;;;;9.81;64.78;99879.72;5113055;28;20502;-77
2024/04/26 05:21:14;;;;;;;10.20;8.30;;;;;;;10.08;64.29;99880.53;5114495;28;20621;-76
2024/04/26 05:23:40;;;;;;;11.70;8.33;;;;;;;10.00;64.16;99884.88;5114201;28;20221;-77
2024/04/26 05:26:05;;;;;;;9.07;8.10;;;;;;;10.35;63.13;99883.97;5116540;28;21105;-75
2024/04/26 05:28:30;;;;;;;16.60;13.90;;;;;;;9.22;64.77;99877.09;5114022;28;20300;-76
2024/04/26 05:30:58;;;;;;;10.90;9.03;;;;;;;8.99;66.17;99887.47;5113803;27;20268;-77
2024/04/26 05:33:24;;;;;;;21.47;18.00;;;;;;;9.72;64.42;99888.41;5113566;27;20220;-77
2024/04/26 05:35:49;;;;;;;10.60;9.07;;;;;;;9.82;64.31;99886.66;5113583;27;20461;-76
2024/04/26 05:38:14;;;;;;;12.33;9.23;;;;;;;10.13;63.03;99888.34;5113394;27;20224;-75
2024/04/26 05:40:41;;;;;;;9.73;8.73;;;;;;;9.80;64.00;99884.94;5114449;27;20224;-77
2024/04/26 05:43:07;;;;;;;9.77;8.40;;;;;;;9.72;65.16;99885.78;5113294;27;20310;-76
2024/04/26 05:45:32;;;;;;;9.63;7.77;;;;;;;9.92;64.67;99882.31;5113058;27;20437;-76
2024/04/26 05:47:57;;;;;;;21.13;16.87;;;;;;;9.66;65.31;99884.94;5113882;28;20340;-77
2024/04/26 05:50:22;;;;;;;16.27;10.63;;;;;;;9.48;65.18;99893.63;5113403;27;20240;-76
2024/04/26 05:52:48;;;;;;;20.17;14.70;;;;;;;9.77;64.96;99886.66;5112530;28;20217;-75
2024/04/26 05:55:13;;;;;;;9.77;8.20;;;;;;;10.05;64.22;99885.75;5113436;28;20224;-76
2024/04/26 05:57:38;;;;;;;8.77;7.90;;;;;;;9.28;65.38;99894.44;5113335;27;20220;-78
2024/04/26 06:00:04;;;;;;;11.07;8.20;;;;;;;9.61;65.51;99891.00;5113085;28;20237;-76
2024/04/26 06:02:30;;;;;;;9.47;8.47;;;;;;;10.08;64.49;99890.94;5115994;28;20354;-77
2024/04/26 06:05:00;;;;;;;9.43;8.40;;;;;;;9.81;64.78;99895.34;5116691;28;21071;-75
2024/04/26 06:07:26;;;;;;;11.03;8.93;;;;;;;9.94;64.45;99893.59;5116051;27;20244;-77
2024/04/26 06:09:51;;;;;;;10.13;8.60;;;;;;;10.01;64.55;99891.84;5115439;27;20940;-76
2024/04/26 06:12:16;;;;;;;10.30;8.07;;;;;;;9.58;65.22;99895.38;5114833;27;20295;-77
2024/04/26 06:14:41;;;;;;;10.60;9.27;;;;;;;9.99;64.72;99894.44;5113655;28;20229;-77
2024/04/26 06:17:07;;;;;;;9.97;9.00;;;;;;;10.08;63.67;99898.75;5115380;28;20266;-77
2024/04/26 06:19:33;;;;;;;10.23;8.20;;;;;;;9.64;64.93;99887.53;5115762;28;20245;-76
2024/04/26 06:22:00;;;;;;;9.83;8.40;;;;;;;10.03;64.54;99895.31;5116494;27;20224;-77
2024/04/26 06:24:25;;;;;;;9.53;8.03;;;;;;;9.95;64.80;99897.94;5115655;27;20446;-77
2024/04/26 06:26:50;;;;;;;10.30;9.30;;;;;;;10.57;63.97;99892.59;5115576;28;20520;-76
2024/04/26 06:29:16;;;;;;;18.87;14.63;;;;;;;10.17;64.90;99888.31;5115874;28;20261;-77
2024/04/26 06:31:44;;;;;;;15.07;9.43;;;;;;;10.02;64.92;99899.63;5115196;27;20666;-77
2024/04/26 06:34:09;;;;;;;12.30;8.90;;;;;;;9.88;65.12;99898.81;5115080;28;20776;-76
2024/04/26 06:36:34;;;;;;;11.23;8.50;;;;;;;9.72;65.06;99893.59;5115191;28;20421;-76
2024/04/26 06:39:00;;;;;;;13.27;10.30;;;;;;;10.31;64.14;99898.72;5115535;28;20268;-77
2024/04/26 06:41:26;;;;;;;15.80;9.00;;;;;;;9.92;65.37;99897.94;5115106;27;20284;-77
2024/04/26 06:43:51;;;;;;;11.40;9.07;;;;;;;10.38;64.52;99903.06;5115849;27;20368;-77
2024/04/26 06:46:16;;;;;;;9.43;8.53;;;;;;;10.33;64.11;99904.78;5115231;28;20583;-77
2024/04/26 06:48:42;;;;;;;8.73;7.53;;;;;;;9.95;65.04;99906.59;5115086;28;20290;-76
2024/04/26 06:51:08;;;;;;;8.50;7.70;;;;;;;9.91;64.38;99907.47;5115408;28;20703;-75
2024/04/26 06:53:33;;;;;;;9.57;7.73;;;;;;;10.03;65.03;99904.00;5112903;28;20228;-75
2024/04/26 06:55:58;;;;;;;9.93;7.80;;;;;;;9.45;66.26;99910.09;5114574;28;20279;-76
2024/04/26 06:58:23;;;;;;;7.93;7.13;;;;;;;10.16;64.21;99901.34;5114517;28;20228;-76
2024/04/26 07:00:49;;;;;;;13.80;8.27;;;;;;;10.00;64.45;99906.59;5114975;28;20243;-75
2024/04/26 07:03:14;;;;;;;9.73;8.00;;;;;;;10.51;63.14;99909.09;5115319;27;20270;-77
2024/04/26 07:05:40;;;;;;;10.87;9.27;;;;;;;10.16;64.56;99912.66;5115253;27;20232;-76
2024/04/26 07:08:05;;;;;;;9.27;7.90;;;;;;;9.90;65.45;99915.28;5114811;28;20681;-76
2024/04/26 07:10:31;;;;;;;8.97;8.07;;;;;;;9.95;65.36;99916.16;5114565;27;20237;-76
2024/04/26 07:12:56;;;;;;;10.97;8.73;;;;;;;9.74;65.83;99909.22;5113912;27;20332;-76
2024/04/26 07:15:21;;;;;;;9.00;8.10;;;;;;;9.59;66.04;99912.69;5114527;28;20280;-76
2024/04/26 07:17:48;;;;;;;11.40;8.27;;;;;;;10.34;64.63;99916.94;5115642;28;20232;-75
2024/04/26 07:20:15;;;;;;;9.67;8.67;;;;;;;10.18;65.01;99917.88;5113397;28;20248;-77
2024/04/26 07:22:40;;;;;;;8.87;7.97;;;;;;;9.68;65.04;99925.72;5115660;27;20585;-75
2024/04/26 07:25:06;;;;;;;8.93;8.03;;;;;;;9.47;66.55;99921.38;5118016;28;20521;-77
2024/04/26 07:27:31;;;;;;;9.13;8.30;;;;;;;9.96;65.31;99920.50;5114357;28;20240;-77
2024/04/26 07:29:56;;;;;;;13.67;12.13;;;;;;;9.69;65.13;99927.44;5114627;28;20270;-76
2024/04/26 07:32:22;;;;;;;14.50;11.03;;;;;;;9.85;65.02;99923.13;5114982;27;20329;-75
2024/04/26 07:34:47;;;;;;;12.27;8.43;;;;;;;9.58;66.65;99917.03;5114815;27;20585;-76
2024/04/26 07:37:12;;;;;;;10.53;8.33;;;;;;;9.20;66.50;99927.38;5114525;27;20765;-77
2024/04/26 07:39:37;;;;;;;12.40;8.47;;;;;;;10.24;64.95;99923.03;5115085;27;20575;-76
2024/04/26 07:42:04;;;;;;;9.50;7.73;;;;;;;10.14;65.08;99923.94;5114146;28;20263;-77
2024/04/26 07:44:30;;;;;;;9.37;7.90;;;;;;;9.22;66.98;99936.06;5114942;28;20279;-77
2024/04/26 07:46:55;;;;;;;9.50;8.30;;;;;;;10.08;65.93;99932.63;5114845;28;20431;-76
2024/04/26 07:49:20;;;;;;;8.93;8.10;;;;;;;9.73;65.12;99934.38;5115089;28;20237;-76
2024/04/26 07:51:46;;;;;;;10.93;9.57;;;;;;;10.32;64.56;99929.09;5114906;28;20228;-76
2024/04/26 07:54:11;;;;;;;10.63;8.50;;;;;;;10.34;64.57;99934.34;5114750;28;20277;-77
2024/04/26 07:56:36;;;;;;;10.03;8.87;;;;;;;9.53;66.30;99936.97;5114052;28;20228;-76
2024/04/26 07:59:02;;;;;;;13.40;9.73;;;;;;;10.23;65.33;99935.22;5112752;28;20260;-75
2024/04/26 08:01:27;;;;;;;10.60;9.50;;;;;;;10.39;64.01;99930.88;5112973;28;20360;-76
2024/04/26 08:03:52;;;;;;;12.50;9.20;;;;;;;10.14;65.04;99934.38;5114221;27;20268;-76
2024/04/26 08:06:18;;;;;;;11.67;8.93;;;;;;;10.32;65.15;99931.69;5114389;27;20270;-76
2024/04/26 08:08:43;;;;;;;16.20;12.53;;;;;;;9.53;67.74;99939.56;5114321;27;20259;-76
2024/04/26 08:11:09;;;;;;;12.10;9.27;;;;;;;9.16;67.55;99943.84;5114186;27;20661;-78
2024/04/26 08:13:34;;;;;;;13.10;8.70;;;;;;;9.16;67.54;99943.84;5114301;27;20225;-77
2024/04/26 08:15:59;;;;;;;9.70;8.70;;;;;;;9.12;68.70;99945.59;5116410;27;20585;-77
2024/04/26 08:18:25;;;;;;;10.30;8.30;;;;;;;9.89;66.95;99935.25;5117122;27;20229;-76
2024/04/26 08:20:50;;;;;;;9.80;8.10;;;;;;;9.30;68.13;99943.91;5137829;22;20620;-82
2024/04/26 08:23:16;;;;;;;11.23;10.17;;;;;;;9.23;68.52;99937.81;5113781;28;20263;-82
2024/04/26 08:25:41;;;;;;;10.07;8.03;;;;;;;9.73;68.16;99934.38;5115742;28;20735;-83
2024/04/26 08:28:08;;;;;;;10.80;8.70;;;;;;;10.28;66.62;99940.41;5115492;27;20236;-83
2024/04/26 08:30:35;;;;;;;11.80;10.00;;;;;;;10.67;65.69;99935.97;5117015;27;20232;-84
2024/04/26 08:33:01;;;;;;;11.40;9.70;;;;;;;10.10;66.27;99938.69;5115104;28;20796;-84
2024/04/26 08:35:26;;;;;;;9.40;8.50;;;;;;;10.42;66.07;99940.41;5116696;27;20504;-84
2024/04/26 08:37:51;;;;;;;11.30;9.20;;;;;;;10.08;65.78;99943.03;5116758;27;20336;-84
2024/04/26 08:40:16;;;;;;;9.70;8.70;;;;;;;8.77;67.20;99964.53;5116420;27;20321;-84
2024/04/26 08:42:45;;;;;;;12.20;9.00;;;;;;;9.79;66.80;99946.53;5117053;27;20676;-82
2024/04/26 08:45:11;;;;;;;10.00;8.87;;;;;;;9.13;66.71;99955.09;5119041;27;20276;-83
2024/04/26 08:47:38;;;;;;;9.17;8.27;;;;;;;9.21;67.32;99960.34;5117250;27;20504;-84
2024/04/26 08:50:04;;;;;;;8.50;7.60;;;;;;;9.22;66.79;99954.28;5117728;27;20489;-82
2024/04/26 08:52:30;;;;;;;9.20;8.23;;;;;;;9.93;65.90;99954.31;5116952;28;20445;-82
2024/04/26 08:54:56;;;;;;;10.60;8.20;;;;;;;10.23;65.28;99949.97;5114510;27;20445;-83
2024/04/26 08:57:21;;;;;;;9.20;8.27;;;;;;;10.17;65.71;99957.78;5116396;27;20273;-84
2024/04/26 08:59:47;;;;;;;11.03;9.10;;;;;;;10.71;63.81;99950.72;5116899;27;20241;-82
2024/04/26 09:02:14;;;;;;;11.10;8.60;;;;;;;10.41;64.23;99960.38;5116203;27;20232;-84
2024/04/26 09:04:40;;;;;;;9.90;8.00;;;;;;;10.20;65.36;99955.19;5117380;27;20280;-83
2024/04/26 09:07:05;;;;;;;9.47;8.50;;;;;;;10.56;64.67;99958.63;5114395;27;20759;-85
2024/04/26 09:09:30;;;;;;;10.30;9.30;;;;;;;9.78;65.94;99952.59;5115317;27;20240;-84
2024/04/26 09:12:01;;;;;;;10.13;8.73;;;;;;;9.76;66.14;99957.81;5115464;27;20232;-83
2024/04/26 09:14:27;;;;;;;9.23;8.40;;;;;;;9.47;68.04;99967.31;5114018;28;20332;-84
2024/04/26 09:16:53;;;;;;;11.50;8.87;;;;;;;10.35;65.44;99963.03;5116354;27;20505;-83
2024/04/26 09:19:18;;;;;;;10.03;8.80;;;;;;;10.39;65.02;99964.75;5115860;28;20524;-83
2024/04/26 09:21:43;;;;;;;9.53;8.53;;;;;;;9.90;66.42;99976.06;5118387;27;20228;-82
2024/04/26 09:24:13;;;;;;;14.53;9.77;;;;;;;10.65;64.40;99973.34;5113386;28;20275;-82
2024/04/26 09:26:39;;;;;;;16.07;13.83;;;;;;;10.97;63.79;99975.84;5114034;28;20232;-83
2024/04/26 09:29:04;;;;;;;22.33;17.87;;;;;;;9.41;67.05;99979.44;5115248;27;20588;-83
2024/04/26 09:31:30;;;;;;;12.50;10.70;;;;;;;10.16;65.08;99969.06;5115785;27;20596;-82
2024/04/26 09:33:56;;;;;;;11.37;9.90;;;;;;;9.60;66.56;99987.28;5115279;27;20228;-83
2024/04/26 09:36:25;;;;;;;40.63;34.53;;;;;;;10.72;64.97;99970.72;5116569;27;20500;-81
2024/04/26 09:38:53;;;;;;;16.30;12.10;;;;;;;10.66;63.03;99968.13;5123009;27;20259;-82
2024/04/26 09:41:20;;;;;;;24.60;19.07;;;;;;;10.34;63.51;99979.47;5126474;27;20429;-81
2024/04/26 09:43:46;;;;;;;21.57;14.50;;;;;;;10.45;63.64;99976.88;5123829;28;20461;-83
2024/04/26 09:46:13;;;;;;;11.40;10.20;;;;;;;10.56;63.33;99979.47;5121179;27;20453;-83
2024/04/26 09:48:40;;;;;;;14.33;8.80;;;;;;;9.54;64.59;99988.16;5119877;27;20457;-82
2024/04/26 09:51:07;;;;;;;9.60;8.70;;;;;;;9.68;65.27;100003.78;5122291;27;20514;-82
2024/04/26 09:53:35;;;;;;;11.43;9.80;;;;;;;9.83;65.27;99994.25;5125713;27;20457;-82
2024/04/26 09:56:01;;;;;;;9.33;8.33;;;;;;;10.01;65.17;99989.06;5116273;27;20449;-83
2024/04/26 09:58:26;;;;;;;10.17;9.27;;;;;;;10.35;65.04;99999.50;5121096;27;20582;-84
2024/04/26 10:00:51;;;;;;;10.80;9.03;;;;;;;10.73;63.68;99995.94;5132259;27;20248;-84
2024/04/26 10:03:17;;;;;;;10.30;8.60;;;;;;;9.69;66.03;99997.72;5126070;27;20244;-83
2024/04/26 10:05:43;;;;;;;9.33;8.40;;;;;;;10.19;64.55;100005.53;5117386;27;20233;-85
2024/04/26 10:08:09;;;;;;;9.97;8.90;;;;;;;10.23;64.45;99995.13;5116407;27;21034;-84
2024/04/26 10:10:35;;;;;;;9.87;8.80;;;;;;;10.26;64.76;100002.06;5115271;27;20774;-85
2024/04/26 10:13:15;;;;;;;13.73;12.27;;;;;;;11.18;61.80;99997.50;5113834;27;20478;-84
2024/04/26 10:15:53;;;;;;;21.67;19.17;;;;;;;10.90;61.68;99995.84;5116753;27;21037;-84
2024/04/26 10:18:19;;;;;;;12.77;9.63;;;;;;;11.11;61.60;100002.72;5116976;27;20507;-84
2024/04/26 10:20:45;;;;;;;8.50;7.70;;;;;;;10.05;64.35;100005.53;5119650;28;20446;-82
2024/04/26 10:23:12;;;;;;;9.37;8.47;;;;;;;10.04;64.44;100006.41;5116440;28;20232;-84
2024/04/26 10:25:38;;;;;;;9.17;8.27;;;;;;;10.58;63.39;100004.66;5118008;27;20498;-82
2024/04/26 10:28:21;;;;;;;9.57;8.60;;;;;;;10.03;64.34;100013.34;5116474;28;20457;-83
2024/04/26 10:30:48;;;;;;;8.60;7.80;;;;;;;10.47;64.13;100015.97;5115906;28;20283;-84
2024/04/26 10:33:15;;;;;;;10.07;9.07;;;;;;;10.95;61.98;100011.50;5116831;28;20437;-84
2024/04/26 10:35:40;;;;;;;10.57;9.57;;;;;;;11.29;61.60;100009.59;5116591;28;20575;-85
2024/04/26 10:38:06;;;;;;;10.80;9.30;;;;;;;11.07;62.22;100014.06;5141855;27;20567;-83
2024/04/26 10:40:42;;;;;;;10.03;9.00;;;;;;;11.43;61.94;100011.25;5115974;28;20631;-83
2024/04/26 10:43:07;;;;;;;9.93;9.00;;;;;;;10.38;63.61;100022.94;5116104;27;20555;-85
2024/04/26 10:45:33;;;;;;;10.97;9.87;;;;;;;11.37;63.14;100022.63;5113717;27;20466;-85
2024/04/26 10:47:58;;;;;;;10.80;8.87;;;;;;;12.06;61.12;100013.47;5116538;27;20356;-85
2024/04/26 10:50:23;;;;;;;18.10;11.00;;;;;;;11.20;62.09;100016.59;5107181;27;20262;-84
2024/04/26 10:52:49;;;;;;;10.10;8.70;;;;;;;11.06;63.09;100017.53;5129309;27;20229;-84
2024/04/26 10:55:14;;;;;;;11.23;8.97;;;;;;;11.10;61.52;100019.25;5120152;28;20229;-85
2024/04/26 10:57:40;;;;;;;10.03;9.13;;;;;;;10.67;62.46;100026.34;5121420;27;20241;-83
2024/04/26 11:00:06;;;;;;;9.97;8.97;;;;;;;10.48;62.46;100026.38;5120668;27;20348;-84
2024/04/26 11:02:31;;;;;;;8.60;7.90;;;;;;;10.84;62.56;100021.97;5121289;27;20352;-83
2024/04/26 11:05:03;;;;;;;10.73;9.63;;;;;;;10.35;62.97;100038.56;5124614;27;20569;-83
2024/04/26 11:07:29;;;;;;;10.17;9.17;;;;;;;11.07;61.20;100029.72;5119749;27;20259;-84
2024/04/26 11:09:54;;;;;;;10.03;9.23;;;;;;;12.03;58.84;100023.97;5119794;27;20523;-82
2024/04/26 11:12:20;;;;;;;9.77;8.87;;;;;;;11.68;59.31;100027.66;5120053;27;20236;-84
2024/04/26 11:14:45;;;;;;;10.33;9.40;;;;;;;11.89;59.89;100025.78;5118300;27;20339;-84
2024/04/26 11:17:10;;;;;;;10.90;9.90;;;;;;;12.32;58.13;100045.50;5118089;27;20224;-84
2024/04/26 11:19:37;;;;;;;11.83;10.73;;;;;;;11.06;61.20;100035.78;5117760;27;20236;-84
2024/04/26 11:22:06;;;;;;;11.00;10.00;;;;;;;11.53;60.57;100036.44;5119192;27;20232;-85
2024/04/26 11:24:32;;;;;;;11.23;10.10;;;;;;;12.11;59.36;100032.59;5123465;27;20433;-86